Data for 05/10/2009

Time Sea-Level Adjusted Pressure Absolute Pressure Temperature Relative Humidity Dew Point   
(mb) (inHg) (mb) (inHg) (C) (F) (%) (C) (F)
00:05 1022 30.18 851 25.13 6.2 43.1 61 -0.8 30.6
00:10 1022 30.18 851 25.13 6.1 43 61 -0.8 30.6
00:15 1022 30.18 851 25.13 6 42.8 62 -0.7 30.7
00:20 1022 30.18 851 25.13 5.9 42.6 62 -0.8 30.6
00:25 1022 30.18 851 25.13 5.9 42.6 62 -0.7 30.7
00:30 1022 30.18 851 25.13 5.8 42.4 63 -0.8 30.6
00:35 1022 30.18 851 25.13 5.9 42.5 62 -0.8 30.6
00:40 1022 30.18 851 25.13 5.7 42.3 63 -0.8 30.6
00:45 1022 30.18 851 25.13 5.6 42.2 63 -0.8 30.5
00:50 1022 30.18 851 25.13 5.6 42.1 63 -0.8 30.5
00:55 1022 30.18 851 25.13 5.6 42.1 63 -0.8 30.5
01:00 1022 30.18 851 25.13 5.5 42 64 -0.7 30.7
01:05 1022 30.18 851 25.13 5.5 41.9 64 -0.8 30.5
01:10 1022 30.18 851 25.13 5.5 42 64 -0.8 30.6
01:15 1022 30.18 851 25.13 5.4 41.8 64 -0.7 30.7
01:20 1022 30.18 851 25.13 5.4 41.7 65 -0.7 30.7
01:25 1022 30.18 851 25.13 5.3 41.6 65 -0.7 30.7
01:30 1022 30.18 851 25.13 5.2 41.4 66 -0.7 30.8
01:35 1022 30.18 851 25.13 5.1 41.2 66 -0.7 30.7
01:40 1022 30.18 851 25.13 5.1 41.1 66 -0.6 30.8
01:45 1022 30.18 851 25.13 5 41 66 -0.8 30.6
01:50 1022 30.18 851 25.13 5 41 66 -0.7 30.7
01:55 1022 30.18 851 25.13 4.9 40.9 67 -0.7 30.7
02:00 1022 30.18 851 25.13 4.9 40.8 67 -0.7 30.7
02:05 1022 30.18 851 25.13 4.9 40.9 66 -0.8 30.5
02:10 1022 30.18 851 25.13 5 41 66 -0.7 30.7
02:15 1022 30.18 851 25.13 4.9 40.9 67 -0.7 30.7
02:20 1022 30.18 851 25.13 4.9 40.8 67 -0.7 30.8
02:25 1022 30.18 851 25.13 4.8 40.7 68 -0.6 30.8
02:30 1022 30.18 851 25.13 4.7 40.5 68 -0.7 30.8
02:35 1022 30.18 851 25.13 4.6 40.3 68 -0.7 30.8
02:40 1022 30.18 851 25.13 4.5 40.1 69 -0.7 30.8
02:45 1022 30.18 851 25.13 4.4 40 69 -0.7 30.8
02:50 1022 30.18 851 25.13 4.4 40 70 -0.6 30.8
02:55 1022 30.18 851 25.13 4.3 39.8 70 -0.7 30.7
03:00 1022 30.18 851 25.13 4.3 39.7 70 -0.7 30.8
03:05 1022 30.18 851 25.13 4.1 39.3 71 -0.7 30.8
03:10 1022 30.18 851 25.13 3.9 39 72 -0.6 30.9
03:15 1022 30.18 851 25.13 3.7 38.6 73 -0.7 30.8
03:20 1022 30.18 851 25.13 3.5 38.2 74 -0.8 30.6
03:25 1022 30.18 851 25.13 3.2 37.8 74 -1 30.1
03:30 1022 30.18 851 25.13 3.3 37.9 73 -1.1 30
03:35 1022 30.18 851 25.13 3.3 38 72 -1.2 29.9
03:40 1022 30.18 851 25.13 3.5 38.3 71 -1.2 29.9
03:45 1022 30.18 851 25.13 3.6 38.5 71 -1.2 29.9
03:50 1022 30.18 851 25.13 3.7 38.7 70 -1.3 29.6
03:55 1022 30.18 851 25.13 3.8 38.9 68 -1.5 29.4
04:00 1022 30.18 851 25.13 3.8 38.8 68 -1.6 29.1
04:05 1022 30.18 851 25.13 4 39.2 67 -1.6 29
04:10 1022 30.18 851 25.13 4.1 39.4 67 -1.4 29.4
04:15 1022 30.18 851 25.13 4 39.2 68 -1.4 29.5
04:20 1022 30.18 851 25.13 3.8 38.8 70 -1.1 30
04:25 1022 30.18 851 25.13 3.2 37.8 74 -0.9 30.4
04:30 1022 30.18 851 25.13 2.7 36.9 75 -1.2 29.8
04:35 1022 30.18 851 25.13 2.6 36.7 77 -1.1 30.1
04:40 1022 30.18 851 25.13 2.5 36.5 76 -1.3 29.7
04:45 1022 30.18 851 25.13 2.8 37 73 -1.5 29.3
04:50 1022 30.18 851 25.13 2.6 36.7 71 -2.1 28.3
04:55 1022 30.18 851 25.13 2.4 36.3 72 -2.1 28.2
05:00 1022 30.18 852 25.16 2.2 36 72 -2.2 28
05:05 1022 30.18 852 25.16 1.8 35.3 73 -2.5 27.6
05:10 1022 30.18 851 25.13 1.6 34.8 73 -2.7 27.1
05:15 1022 30.18 851 25.13 1.4 34.5 71 -3.3 26
05:20 1022 30.18 851 25.13 1.2 34.2 72 -3.4 26
05:25 1022 30.18 851 25.13 1 33.7 73 -3.3 26.1
05:30 1022 30.18 851 25.13 1.1 33.9 72 -3.4 25.8
05:35 1022 30.18 851 25.13 1.2 34.1 71 -3.5 25.7
05:40 1022 30.18 851 25.13 1 33.8 71 -3.6 25.4
05:45 1022 30.18 851 25.13 1.1 34.1 69 -3.9 25
05:50 1022 30.18 851 25.13 1.2 34.1 70 -3.7 25.4
05:55 1022 30.18 851 25.13 1.2 34.1 70 -3.8 25.2
06:00 1022 30.18 851 25.13 1 33.8 71 -3.6 25.5
06:05 1022 30.18 851 25.13 0.8 33.5 69 -4.3 24.3
06:10 1022 30.18 851 25.13 1.5 34.7 65 -4.4 24
06:15 1022 30.18 851 25.13 2.2 36 66 -3.4 25.8
06:20 1022 30.18 851 25.13 2.3 36.2 67 -3.2 26.2
06:25 1022 30.18 851 25.13 2.1 35.7 70 -2.9 26.8
06:30 1022 30.18 851 25.13 1.5 34.7 71 -3.2 26.2
06:35 1022 30.18 851 25.13 1.9 35.4 69 -3.3 26.1
06:40 1022 30.18 851 25.13 2.2 36 68 -3 26.6
06:45 1022 30.18 851 25.13 2.4 36.4 67 -3 26.6
06:50 1022 30.18 851 25.13 2.6 36.6 68 -2.8 27
06:55 1022 30.18 851 25.13 2.6 36.8 68 -2.7 27.2
07:00 1022 30.18 851 25.13 2.7 36.8 68 -2.6 27.2
07:05 1022 30.18 852 25.16 2.8 37 68 -2.4 27.6
07:10 1022 30.18 852 25.16 3.2 37.7 67 -2.4 27.8
07:15 1022 30.18 852 25.16 3.5 38.3 66 -2.2 28.1
07:20 1022 30.18 852 25.16 3.8 38.8 65 -2.3 27.9
07:25 1022 30.18 852 25.16 3.9 39 64 -2.3 27.9
07:30 1022 30.18 852 25.16 4.2 39.6 64 -2.1 28.3
07:35 1022 30.18 852 25.16 4.3 39.7 64 -2 28.5
07:40 1022 30.18 852 25.16 4.4 40 64 -1.8 28.7
07:45 1022 30.18 852 25.16 4.4 39.8 63 -2.1 28.3
07:50 1022 30.18 852 25.16 4.7 40.5 60 -2.3 27.8
07:55 1022 30.18 852 25.16 5.1 41.2 59 -2.3 27.8
08:00 1023 30.21 852 25.16 5.7 42.3 57 -2.1 28.1
08:05 1023 30.21 852 25.16 6 42.8 57 -1.9 28.6
08:10 1023 30.21 852 25.16 5.4 41.7 58 -2.3 27.9
08:15 1022 30.18 852 25.16 5.8 42.4 55 -2.7 27.2
08:20 1022 30.18 852 25.16 5.9 42.7 52 -3.1 26.5
08:25 1022 30.18 852 25.16 6.2 43.1 49 -3.7 25.3
08:30 1022 30.18 852 25.16 6.7 44.1 49 -3.3 26.1
08:35 1022 30.18 852 25.16 6.5 43.7 49 -3.4 25.9
08:40 1022 30.18 852 25.16 6.9 44.5 47 -3.7 25.4
08:45 1022 30.18 852 25.16 7.7 45.8 44 -3.6 25.4
08:50 1022 30.18 852 25.16 8.4 47.1 41 -4 24.8
08:55 1022 30.18 852 25.16 8.5 47.2 40 -4.4 24
09:00 1022 30.18 852 25.16 8.1 46.5 42 -4 24.9
09:05 1022 30.18 852 25.16 8.2 46.8 40 -4.4 24
09:10 1022 30.18 852 25.16 9.4 48.9 38 -4 24.8
09:15 1022 30.18 852 25.16 9.1 48.3 43 -2.8 26.9
09:20 1022 30.18 852 25.16 9.2 48.5 42 -3 26.5
09:25 1022 30.18 852 25.16 9.9 49.9 39 -3.2 26.3
09:30 1022 30.18 852 25.16 10.1 50.2 45 -1.3 29.6
09:35 1022 30.18 852 25.16 9.7 49.5 45 -1.7 29
09:40 1022 30.18 852 25.16 9.5 49 45 -1.8 28.8
09:45 1022 30.18 852 25.16 9.8 49.7 45 -1.5 29.3
09:50 1022 30.18 852 25.16 9.6 49.3 46 -1.4 29.4
09:55 1022 30.18 851 25.13 8.6 47.5 49 -1.3 29.6
10:00 1022 30.18 851 25.13 9.5 49.1 45 -1.7 28.9
10:05 1022 30.18 851 25.13 9.2 48.5 47 -1.4 29.5
10:10 1022 30.18 851 25.13 9.4 48.9 45 -1.9 28.6
10:15 1022 30.18 851 25.13 10.5 50.9 43 -1.3 29.6
10:20 1022 30.18 851 25.13 10.8 51.5 43 -1.3 29.6
10:25 1022 30.18 851 25.13 10.6 51.1 45 -0.6 30.8
10:30 1022 30.18 851 25.13 10.6 51 42 -1.7 29
10:35 1022 30.18 851 25.13 11.5 52.7 41 -1.4 29.5
10:40 1022 30.18 851 25.13 11.9 53.4 40 -1.3 29.7
10:45 1022 30.18 851 25.13 10.8 51.4 42 -1.5 29.3
10:50 1022 30.18 851 25.13 10.5 50.9 44 -1.2 29.8
10:55 1022 30.18 851 25.13 11.2 52.2 40 -2 28.5
11:00 1022 30.18 851 25.13 11.5 52.7 40 -1.4 29.4
11:05 1022 30.18 851 25.13 12.1 53.7 39 -1.4 29.4
11:10 1022 30.18 851 25.13 11.9 53.4 40 -1.4 29.5
11:15 1022 30.18 851 25.13 12.1 53.8 39 -1.5 29.3
11:20 1022 30.18 851 25.13 12.7 54.8 38 -1.3 29.7
11:25 1022 30.18 851 25.13 12.4 54.3 40 -0.9 30.5
11:30 1021 30.15 851 25.13 12.6 54.6 36 -2 28.4
11:35 1021 30.15 851 25.13 13.3 56 35 -1.7 29
11:40 1021 30.15 851 25.13 13.2 55.8 35 -1.7 28.9
11:45 1021 30.15 851 25.13 13 55.4 33 -2.8 27
11:50 1021 30.15 850 25.1 12 53.6 36 -2.5 27.5
11:55 1021 30.15 850 25.1 13 55.4 33 -2.8 26.9
12:00 1021 30.15 850 25.1 14.1 57.4 32 -2.1 28.1
12:05 1021 30.15 850 25.1 14 57.3 30 -3.2 26.3
12:10 1021 30.15 850 25.1 14.5 58.1 29 -3 26.5
12:15 1021 30.15 850 25.1 14.4 57.9 29 -3.4 25.8
12:20 1021 30.15 850 25.1 14.2 57.5 29 -3.7 25.4
12:25 1021 30.15 850 25.1 13.6 56.4 31 -3.3 26
12:30 1021 30.15 850 25.1 13.5 56.3 24 -6.6 20.2
12:35 1021 30.15 850 25.1 13.8 56.8 27 -5.1 22.8
12:40 1021 30.15 850 25.1 14.5 58.2 26 -4.8 23.4
12:45 1021 30.15 850 25.1 14.9 58.8 25 -5 23
12:50 1021 30.15 850 25.1 14.8 58.7 27 -4.1 24.6
12:55 1021 30.15 850 25.1 15 58.9 26 -4.5 23.9
13:00 1021 30.15 850 25.1 14.5 58 26 -4.8 23.3
13:05 1021 30.15 850 25.1 14 57.2 26 -5.1 22.8
13:10 1021 30.15 850 25.1 13.8 56.9 27 -4.6 23.7
13:15 1020 30.12 850 25.1 14.2 57.6 24 -5.9 21.4
13:20 1020 30.12 850 25.1 15.6 60.1 22 -5.9 21.3
13:25 1020 30.12 850 25.1 15.4 59.8 22 -6.3 20.6
13:30 1020 30.12 849 25.07 15.6 60 19 -7.6 18.3
13:35 1020 30.12 849 25.07 15.6 60.1 22 -6.2 20.9
13:40 1020 30.12 849 25.07 16.3 61.3 19 -7.2 19
13:45 1020 30.12 849 25.07 15.9 60.6 20 -6.8 19.8
13:50 1020 30.12 849 25.07 16.3 61.3 22 -5.5 22.1
13:55 1020 30.12 849 25.07 15.8 60.4 21 -6.7 19.9
14:00 1020 30.12 849 25.07 15.2 59.3 20 -7.3 18.9
14:05 1020 30.12 849 25.07 15.4 59.8 21 -6.5 20.3
14:10 1020 30.12 849 25.07 15.7 60.2 21 -6.7 20
14:15 1020 30.12 849 25.07 15.6 60.1 21 -6.3 20.6
14:20 1020 30.12 849 25.07 16.6 61.8 20 -6.7 19.9
14:25 1020 30.12 849 25.07 16.3 61.3 22 -5.6 21.9
14:30 1020 30.12 849 25.07 15.7 60.3 21 -6.5 20.3
14:35 1020 30.12 849 25.07 16.4 61.6 21 -5.8 21.6
14:40 1020 30.12 849 25.07 16.5 61.7 23 -4.4 24
14:45 1020 30.12 849 25.07 15.7 60.3 22 -6 21.2
14:50 1020 30.12 849 25.07 15 59.1 21 -6.8 19.7
14:55 1020 30.12 849 25.07 16.1 61 22 -5.4 22.3
15:00 1020 30.12 849 25.07 16.4 61.6 20 -6.7 20
15:05 1019 30.09 849 25.07 16.8 62.3 21 -5.7 21.8
15:10 1019 30.09 849 25.07 17.2 62.9 19 -6.3 20.7
15:15 1019 30.09 849 25.07 17 62.6 20 -6.1 21
15:20 1019 30.09 849 25.07 17.1 62.7 19 -6.4 20.5
15:25 1019 30.09 849 25.07 17.1 62.7 19 -6.5 20.3
15:30 1019 30.09 848 25.04 16.2 61.1 21 -6.4 20.5
15:35 1019 30.09 848 25.04 17.3 63.2 20 -6 21.3
15:40 1019 30.09 848 25.04 17 62.5 20 -5.9 21.4
15:45 1019 30.09 848 25.04 16.5 61.8 21 -5.9 21.4
15:50 1019 30.09 848 25.04 16.7 62 19 -7 19.5
15:55 1019 30.09 848 25.04 16.9 62.3 20 -6.3 20.6
16:00 1019 30.09 848 25.04 16 60.7 21 -6.3 20.6
16:05 1019 30.09 848 25.04 16 60.8 21 -6 21.3
16:10 1019 30.09 848 25.04 15.6 60.2 22 -6.1 21.1
16:15 1019 30.09 848 25.04 15.9 60.5 21 -6.1 21.1
16:20 1019 30.09 848 25.04 16.5 61.6 20 -6.6 20
16:25 1019 30.09 848 25.04 15.8 60.5 20 -6.8 19.7
16:30 1019 30.09 848 25.04 15.2 59.4 23 -5.9 21.3
16:35 1019 30.09 848 25.04 15.4 59.7 21 -6.7 20
16:40 1019 30.09 848 25.04 15.8 60.5 22 -5.6 22
16:45 1019 30.09 848 25.04 15.1 59.2 22 -6.2 20.8
16:50 1019 30.09 848 25.04 15.3 59.5 20 -7.3 18.9
16:55 1019 30.09 848 25.04 15.3 59.6 22 -6.4 20.5
17:00 1019 30.09 848 25.04 15.8 60.4 19 -7.5 18.6
17:05 1018 30.06 848 25.04 16.3 61.4 20 -6.7 19.9
17:10 1018 30.06 848 25.04 16.5 61.6 20 -6.6 20.1
17:15 1018 30.06 848 25.04 16.5 61.7 19 -7 19.4
17:20 1018 30.06 848 25.04 16.1 60.9 21 -6 21.2
17:25 1018 30.06 848 25.04 15.4 59.6 22 -6.4 20.6
17:30 1018 30.06 848 25.04 15.2 59.4 21 -6.9 19.6
17:35 1018 30.06 848 25.04 15.7 60.3 22 -5.9 21.3
17:40 1018 30.06 848 25.04 16 60.8 22 -5.3 22.4
17:45 1018 30.06 848 25.04 15.6 60.1 23 -5.6 22
17:50 1018 30.06 848 25.04 15.9 60.6 22 -5.8 21.5
17:55 1018 30.06 848 25.04 16 60.9 21 -6.1 21
18:00 1018 30.06 848 25.04 16.7 62.1 20 -6 21.2
18:05 1018 30.06 848 25.04 16.9 62.3 21 -5.8 21.6
18:10 1018 30.06 848 25.04 16.4 61.6 22 -5.3 22.5
18:15 1018 30.06 848 25.04 16.1 61 22 -5.4 22.3
18:20 1018 30.06 848 25.04 15.5 60 25 -4.5 23.9
18:25 1018 30.06 848 25.04 15.5 59.8 23 -5.4 22.2
18:30 1018 30.06 848 25.04 15.5 60 23 -5.4 22.3
18:35 1018 30.06 848 25.04 15.3 59.6 22 -6 21.2
18:40 1018 30.06 848 25.04 15.1 59.2 22 -6.3 20.6
18:45 1018 30.06 848 25.04 15 58.9 23 -6.2 20.9
18:50 1018 30.06 847 25.01 14.5 58.1 23 -6.5 20.3
18:55 1018 30.06 847 25.01 14.8 58.7 22 -6.5 20.3
19:00 1018 30.06 847 25.01 14.7 58.5 22 -6.6 20.1
19:05 1018 30.06 847 25.01 14.4 58 22 -6.9 19.7
19:10 1018 30.06 847 25.01 14.7 58.5 22 -6.5 20.3
19:15 1018 30.06 847 25.01 14.2 57.6 24 -6.1 21
19:20 1018 30.06 847 25.01 13.9 57.1 23 -6.5 20.2
19:25 1018 30.06 847 25.01 13.9 57.1 24 -6.3 20.7
19:30 1018 30.06 847 25.01 13.9 57 24 -6.4 20.5
19:35 1018 30.06 847 25.01 13.9 57 24 -6.5 20.3
19:40 1018 30.06 847 25.01 13.9 56.9 23 -6.6 20.1
19:45 1018 30.06 847 25.01 13.7 56.7 23 -6.8 19.7
19:50 1018 30.06 847 25.01 13.8 56.8 24 -6.5 20.4
19:55 1018 30.06 847 25.01 13.9 56.9 23 -6.6 20.1
20:00 1018 30.06 847 25.01 13.9 56.9 24 -6.5 20.2
20:05 1018 30.06 847 25.01 14 57.2 23 -6.8 19.8
20:10 1018 30.06 847 25.01 13.8 56.9 23 -6.6 20
20:15 1018 30.06 847 25.01 13.9 56.9 23 -6.7 19.9
20:20 1018 30.06 847 25.01 13.8 56.8 24 -6.4 20.5
20:25 1018 30.06 847 25.01 13.6 56.5 24 -6.7 19.9
20:30 1018 30.06 847 25.01 13.6 56.4 23 -7.3 18.9
20:35 1018 30.06 847 25.01 13.3 55.9 36 -1.4 29.5
20:40 1018 30.06 847 25.01 11.9 53.5 43 -0.3 31.5
20:45 1018 30.06 848 25.04 11.3 52.4 45 -0 31.9
20:50 1018 30.06 848 25.04 11 51.8 46 -0 31.9
20:55 1018 30.06 848 25.04 10.7 51.3 47 0 32
21:00 1018 30.06 848 25.04 10.6 51.1 47 -0.1 31.9
21:05 1018 30.06 848 25.04 10.5 50.9 48 0.1 32.2
21:10 1018 30.06 848 25.04 10.4 50.7 49 0.2 32.3
21:15 1018 30.06 848 25.04 10.3 50.5 50 0.3 32.5
21:20 1018 30.06 848 25.04 10.1 50.2 51 0.4 32.7
21:25 1018 30.06 848 25.04 10 49.9 52 0.6 33
21:30 1019 30.09 848 25.04 9.8 49.7 54 0.9 33.6
21:35 1018 30.06 848 25.04 9.7 49.4 54 1 33.8
21:40 1019 30.09 848 25.04 9.6 49.2 55 1.1 33.9
21:45 1019 30.09 848 25.04 9.5 49.1 56 1.2 34.1
21:50 1018 30.06 848 25.04 9.4 48.9 57 1.2 34.2
21:55 1019 30.09 848 25.04 9.3 48.7 57 1.2 34.2
22:00 1019 30.09 848 25.04 9.2 48.5 57 1.2 34.1
22:05 1019 30.09 848 25.04 9.1 48.4 58 1.2 34.2
22:10 1019 30.09 848 25.04 9 48.1 58 1.3 34.3
22:15 1019 30.09 848 25.04 8.9 48.1 58 1.1 34
22:20 1019 30.09 848 25.04 8.9 48 58 1.2 34.2
22:25 1019 30.09 848 25.04 8.8 47.9 59 1.2 34.1
22:30 1019 30.09 848 25.04 8.7 47.7 59 1.3 34.4
22:35 1018 30.06 848 25.04 8.7 47.7 60 1.4 34.5
22:40 1018 30.06 848 25.04 8.7 47.6 60 1.4 34.6
22:45 1019 30.09 848 25.04 8.6 47.4 61 1.5 34.7
22:50 1019 30.09 848 25.04 8.4 47.2 62 1.6 34.8
22:55 1019 30.09 848 25.04 8.4 47.1 62 1.4 34.6
23:00 1018 30.06 848 25.04 8.3 47 62 1.6 34.9
23:05 1018 30.06 848 25.04 8.3 46.9 63 1.6 35
23:10 1018 30.06 848 25.04 8.2 46.7 63 1.7 35
23:15 1018 30.06 847 25.01 8.2 46.7 63 1.7 35
23:20 1018 30.06 847 25.01 8.1 46.5 64 1.7 35
23:25 1018 30.06 847 25.01 8 46.4 64 1.6 34.8
23:30 1018 30.06 847 25.01 8 46.3 64 1.7 35
23:35 1018 30.06 847 25.01 7.9 46.2 65 1.6 34.9
23:40 1018 30.06 847 25.01 7.8 46 65 1.7 35
23:45 1018 30.06 847 25.01 7.6 45.7 65 1.6 34.9
23:50 1018 30.06 847 25.01 7.5 45.6 66 1.6 34.9
23:55 1018 30.06 847 25.01 7.5 45.5 66 1.6 34.8
24:00 1018 30.06 847 25.01 7.5 45.4 66 1.6 35